Dapp, Canada
Current Conditions -  °F | °C
As of 9:38 PM on Wednesday 28 Jan 2015 (Local Time) from CZVL Reporting Station
Few Clouds Few Clouds  
Wind Chill: 19°   Ceiling: Unl
Heat Index: 19°   Visibility: 9mi
Dew Point: 19°   Wind: 3mph
Humidity: 100%   Direction: 100°E
Pressure: 30.36"   Gusts: NA
Location:  54.35°N, 113.92°W
Report Text: CZVL 290438Z AUTO 10003KT 9SM FEW005 M07/M07 A3036 RMK SLP324
Loading
Personal Weather Stations






























Interactive Weather Map New forecast layout! Learn more

10-Day Weather Forecast

Advertisements
Track Severe Weather on mobile